Time,TemperatureF,DewpointF,PressureIn,WindDirection,WindDirectionDegrees,WindSpeedMPH,WindSpeedGustMPH,Humidity,HourlyPrecipIn,Conditions,Clouds,dailyrainin,SoftwareType,DateUTC
2013-06-30 00:13:00,75.7,64.0,29.76,NNW,328,0.0,0.0,67,0.00,,,0.00,weatherlink.com 1.10,2013-06-30 06:13:00,
2013-06-30 00:28:00,75.6,68.0,29.76,NNW,328,0.0,0.0,77,0.00,,,0.00,weatherlink.com 1.10,2013-06-30 06:28:00,
2013-06-30 00:43:00,73.7,65.0,29.76,NNW,328,0.0,0.0,73,0.00,,,0.00,weatherlink.com 1.10,2013-06-30 06:43:00,
2013-06-30 00:58:00,72.7,66.0,29.76,NNW,328,0.0,0.0,79,0.00,,,0.00,weatherlink.com 1.10,2013-06-30 06:58:00,
2013-06-30 01:13:00,73.5,68.0,29.76,NNW,328,0.0,0.0,82,0.00,,,0.00,weatherlink.com 1.10,2013-06-30 07:13:00,
2013-06-30 01:29:00,73.1,68.0,29.76,NNW,328,0.0,0.0,84,0.00,,,0.00,weatherlink.com 1.10,2013-06-30 07:29:00,
2013-06-30 01:43:00,72.3,68.0,29.76,NNW,328,0.0,0.0,86,0.00,,,0.00,weatherlink.com 1.10,2013-06-30 07:43:00,
2013-06-30 01:58:00,72.6,69.0,29.75,NW,304,0.0,2.0,88,0.00,,,0.00,weatherlink.com 1.10,2013-06-30 07:58:00,
2013-06-30 02:13:00,73.4,68.0,29.74,NW,304,0.0,0.0,84,0.00,,,0.00,weatherlink.com 1.10,2013-06-30 08:13:00,
2013-06-30 02:28:00,73.0,65.0,29.74,NW,304,0.0,0.0,75,0.00,,,0.00,weatherlink.com 1.10,2013-06-30 08:28:00,
2013-06-30 02:43:00,72.9,63.0,29.73,NW,304,0.0,0.0,71,0.00,,,0.00,weatherlink.com 1.10,2013-06-30 08:43:00,
2013-06-30 02:58:00,74.1,65.0,29.73,NW,304,0.0,0.0,73,0.00,,,0.00,weatherlink.com 1.10,2013-06-30 08:58:00,
2013-06-30 03:13:00,74.2,66.0,29.74,WNW,303,0.0,1.0,76,0.00,,,0.00,weatherlink.com 1.10,2013-06-30 09:13:00,
2013-06-30 03:28:00,73.6,64.0,29.74,NNW,330,1.0,1.0,72,0.00,,,0.00,weatherlink.com 1.10,2013-06-30 09:28:00,
2013-06-30 03:43:00,73.3,63.0,29.74,NW,309,0.0,1.0,70,0.00,,,0.00,weatherlink.com 1.10,2013-06-30 09:43:00,
2013-06-30 03:58:00,72.8,63.0,29.74,NW,326,2.0,4.0,72,0.00,,,0.00,weatherlink.com 1.10,2013-06-30 09:58:00,
2013-06-30 04:13:00,72.2,63.0,29.75,WNW,303,0.0,2.0,73,0.00,,,0.00,weatherlink.com 1.10,2013-06-30 10:13:00,
2013-06-30 04:28:00,72.4,64.0,29.76,NW,305,0.0,4.0,74,0.00,,,0.00,weatherlink.com 1.10,2013-06-30 10:28:00,
2013-06-30 04:43:00,72.7,63.0,29.77,North,351,0.0,5.0,72,0.00,,,0.00,weatherlink.com 1.10,2013-06-30 10:43:00,
2013-06-30 04:58:00,72.8,63.0,29.77,North,6,3.0,5.0,71,0.00,,,0.00,weatherlink.com 1.10,2013-06-30 10:58:00,
2013-06-30 05:14:00,72.7,63.0,29.78,North,354,2.0,9.0,71,0.00,,,0.00,weatherlink.com 1.10,2013-06-30 11:14:00,
2013-06-30 05:29:00,72.8,62.0,29.78,NW,309,2.0,6.0,70,0.00,,,0.00,weatherlink.com 1.10,2013-06-30 11:29:00,
2013-06-30 05:44:00,72.6,62.0,29.79,NW,316,3.0,4.0,70,0.00,,,0.00,weatherlink.com 1.10,2013-06-30 11:44:00,
2013-06-30 05:59:00,73.3,63.0,29.80,NW,304,0.0,7.0,69,0.00,,,0.00,weatherlink.com 1.10,2013-06-30 11:59:00,
2013-06-30 06:14:00,75.0,63.0,29.80,NW,323,1.0,5.0,67,0.00,,,0.00,weatherlink.com 1.10,2013-06-30 12:14:00,
2013-06-30 06:29:00,76.2,63.0,29.81,NW,326,2.0,4.0,63,0.00,,,0.00,weatherlink.com 1.10,2013-06-30 12:29:00,
2013-06-30 06:44:00,77.3,63.0,29.82,NNE,27,0.0,7.0,62,0.00,,,0.00,weatherlink.com 1.10,2013-06-30 12:44:00,
2013-06-30 06:59:00,78.0,62.0,29.82,NNW,335,5.0,9.0,58,0.00,,,0.00,weatherlink.com 1.10,2013-06-30 12:59:00,
2013-06-30 07:14:00,79.2,61.0,29.83,NNW,335,0.0,9.0,54,0.00,,,0.00,weatherlink.com 1.10,2013-06-30 13:14:00,
2013-06-30 07:29:00,80.0,62.0,29.84,NNE,29,2.0,7.0,54,0.00,,,0.00,weatherlink.com 1.10,2013-06-30 13:29:00,
2013-06-30 07:44:00,79.0,61.0,29.84,North,4,1.0,10.0,54,0.00,,,0.00,weatherlink.com 1.10,2013-06-30 13:44:00,
2013-06-30 07:59:00,78.3,61.0,29.84,West,281,2.0,11.0,55,0.00,,,0.00,weatherlink.com 1.10,2013-06-30 13:59:00,
2013-06-30 08:14:00,80.0,62.0,29.84,NNW,328,6.0,10.0,54,0.00,,,0.00,weatherlink.com 1.10,2013-06-30 14:14:00,
2013-06-30 08:29:00,81.6,62.0,29.84,NNW,328,0.0,8.0,52,0.00,,,0.00,weatherlink.com 1.10,2013-06-30 14:29:00,
2013-06-30 08:44:00,80.8,63.0,29.85,NW,304,2.0,7.0,54,0.00,,,0.00,weatherlink.com 1.10,2013-06-30 14:44:00,
2013-06-30 08:59:00,82.1,62.0,29.84,NW,312,0.0,10.0,51,0.00,,,0.00,weatherlink.com 1.10,2013-06-30 14:59:00,
2013-06-30 09:14:00,83.5,63.0,29.84,WNW,293,1.0,7.0,50,0.00,,,0.00,weatherlink.com 1.10,2013-06-30 15:14:00,
2013-06-30 09:29:00,83.6,63.0,29.84,NNW,327,3.0,7.0,50,0.00,,,0.00,weatherlink.com 1.10,2013-06-30 15:29:00,
2013-06-30 09:44:00,85.4,62.0,29.84,WNW,296,1.0,12.0,46,0.00,,,0.00,weatherlink.com 1.10,2013-06-30 15:44:00,
2013-06-30 09:59:00,85.2,60.0,29.84,NNW,329,2.0,12.0,43,0.00,,,0.00,weatherlink.com 1.10,2013-06-30 15:59:00,
2013-06-30 10:14:00,85.1,63.0,29.84,WNW,287,7.0,12.0,47,0.00,,,0.00,weatherlink.com 1.10,2013-06-30 16:14:00,
2013-06-30 10:30:00,86.5,60.0,29.84,WNW,298,1.0,9.0,41,0.00,,,0.00,weatherlink.com 1.10,2013-06-30 16:30:00,
2013-06-30 10:45:00,87.3,59.0,29.84,North,359,2.0,15.0,38,0.00,,,0.00,weatherlink.com 1.10,2013-06-30 16:45:00,
2013-06-30 11:00:00,87.7,60.0,29.84,NW,304,4.0,12.0,39,0.00,,,0.00,weatherlink.com 1.10,2013-06-30 17:00:00,
2013-06-30 11:15:00,87.4,62.0,29.84,NW,309,7.0,11.0,42,0.00,,,0.00,weatherlink.com 1.10,2013-06-30 17:15:00,
2013-06-30 11:30:00,87.4,60.0,29.83,WNW,302,8.0,14.0,39,0.00,,,0.00,weatherlink.com 1.10,2013-06-30 17:30:00,
2013-06-30 11:45:00,87.7,61.0,29.83,NNW,336,4.0,11.0,41,0.00,,,0.00,weatherlink.com 1.10,2013-06-30 17:45:00,
2013-06-30 12:00:00,88.1,62.0,29.82,WNW,295,6.0,10.0,42,0.00,,,0.00,weatherlink.com 1.10,2013-06-30 18:00:00,
2013-06-30 12:15:00,88.3,60.0,29.82,NW,325,7.0,9.0,38,0.00,,,0.00,weatherlink.com 1.10,2013-06-30 18:15:00,
2013-06-30 12:30:00,89.3,60.0,29.82,NNW,328,6.0,14.0,38,0.00,,,0.00,weatherlink.com 1.10,2013-06-30 18:30:00,
2013-06-30 12:45:00,88.9,59.0,29.82,WSW,248,3.0,11.0,37,0.00,,,0.00,weatherlink.com 1.10,2013-06-30 18:45:00,
2013-06-30 13:00:00,88.9,59.0,29.82,NW,307,8.0,15.0,37,0.00,,,0.00,weatherlink.com 1.10,2013-06-30 19:00:00,
2013-06-30 13:15:00,89.1,58.0,29.81,WNW,295,3.0,14.0,35,0.00,,,0.00,weatherlink.com 1.10,2013-06-30 19:15:00,
2013-06-30 13:30:00,90.0,58.0,29.81,WNW,291,1.0,13.0,34,0.00,,,0.00,weatherlink.com 1.10,2013-06-30 19:30:00,
2013-06-30 13:45:00,89.6,59.0,29.81,NW,322,5.0,12.0,35,0.00,,,0.00,weatherlink.com 1.10,2013-06-30 19:45:00,
2013-06-30 14:00:00,89.5,58.0,29.80,NW,314,12.0,-999.0,34,-99.99,,,0.00,weatherlink.com 1.10,2013-06-30 20:00:00,
2013-06-30 14:15:00,90.0,57.0,29.80,WNW,291,9.0,20.0,33,0.00,,,0.00,weatherlink.com 1.10,2013-06-30 20:15:00,
2013-06-30 14:30:00,90.3,58.0,29.80,NNE,26,2.0,10.0,34,0.00,,,0.00,weatherlink.com 1.10,2013-06-30 20:30:00,
2013-06-30 14:45:00,90.7,60.0,29.80,WNW,288,4.0,10.0,35,0.00,,,0.00,weatherlink.com 1.10,2013-06-30 20:45:00,
2013-06-30 15:00:00,90.4,59.0,29.80,West,274,5.0,14.0,35,0.00,,,0.00,weatherlink.com 1.10,2013-06-30 21:00:00,
2013-06-30 15:15:00,90.5,59.0,29.80,NW,309,1.0,10.0,35,0.00,,,0.00,weatherlink.com 1.10,2013-06-30 21:15:00,
2013-06-30 15:29:00,89.8,59.0,29.80,WNW,301,8.0,15.0,35,0.00,,,0.00,weatherlink.com 1.10,2013-06-30 21:29:00,
2013-06-30 15:45:00,89.7,59.0,29.80,NW,321,3.0,16.0,35,0.00,,,0.00,weatherlink.com 1.10,2013-06-30 21:45:00,
2013-06-30 16:00:00,89.5,59.0,29.80,SW,222,3.0,11.0,36,0.00,,,0.00,weatherlink.com 1.10,2013-06-30 22:00:00,
2013-06-30 16:15:00,89.6,56.0,29.80,North,1,4.0,11.0,32,0.00,,,0.00,weatherlink.com 1.10,2013-06-30 22:15:00,
2013-06-30 16:30:00,89.3,57.0,29.80,NW,307,1.0,12.0,34,0.00,,,0.00,weatherlink.com 1.10,2013-06-30 22:30:00,
2013-06-30 16:45:00,90.1,57.0,29.80,NW,315,0.0,9.0,33,0.00,,,0.00,weatherlink.com 1.10,2013-06-30 22:45:00,
2013-06-30 17:00:00,89.2,57.0,29.80,WNW,290,1.0,11.0,33,0.00,,,0.00,weatherlink.com 1.10,2013-06-30 23:00:00,
2013-06-30 17:15:00,88.3,57.0,29.80,WNW,295,1.0,11.0,34,0.00,,,0.00,weatherlink.com 1.10,2013-06-30 23:15:00,
2013-06-30 17:30:00,88.0,57.0,29.80,NW,319,2.0,10.0,35,0.00,,,0.00,weatherlink.com 1.10,2013-06-30 23:30:00,
2013-06-30 17:45:00,87.6,58.0,29.80,West,278,2.0,11.0,37,0.00,,,0.00,weatherlink.com 1.10,2013-06-30 23:45:00,
2013-06-30 18:00:00,87.5,57.0,29.80,NW,304,1.0,11.0,36,0.00,,,0.00,weatherlink.com 1.10,2013-07-01 00:00:00,
2013-06-30 18:15:00,87.0,55.0,29.80,North,8,0.0,11.0,34,0.00,,,0.00,weatherlink.com 1.10,2013-07-01 00:15:00,
2013-06-30 18:30:00,86.3,58.0,29.80,WNW,298,4.0,9.0,38,0.00,,,0.00,weatherlink.com 1.10,2013-07-01 00:30:00,
2013-06-30 18:45:00,85.4,58.0,29.80,NNW,340,0.0,7.0,39,0.00,,,0.00,weatherlink.com 1.10,2013-07-01 00:45:00,
2013-06-30 19:00:00,84.1,57.0,29.80,NW,325,0.0,9.0,39,0.00,,,0.00,weatherlink.com 1.10,2013-07-01 01:00:00,
2013-06-30 19:15:00,82.8,57.0,29.80,NW,316,5.0,6.0,41,0.00,,,0.00,weatherlink.com 1.10,2013-07-01 01:15:00,
2013-06-30 19:31:00,81.4,57.0,29.81,North,358,0.0,4.0,43,0.00,,,0.00,weatherlink.com 1.10,2013-07-01 01:31:00,
2013-06-30 19:45:00,80.3,57.0,29.81,NNE,27,0.0,4.0,45,0.00,,,0.00,weatherlink.com 1.10,2013-07-01 01:45:00,
2013-06-30 20:01:00,79.1,57.0,29.81,NNW,333,1.0,4.0,47,0.00,,,0.00,weatherlink.com 1.10,2013-07-01 02:01:00,
2013-06-30 20:16:00,78.1,57.0,29.82,North,4,0.0,3.0,49,0.00,,,0.00,weatherlink.com 1.10,2013-07-01 02:16:00,
2013-06-30 20:31:00,77.4,57.0,29.82,North,358,0.0,4.0,49,0.00,,,0.00,weatherlink.com 1.10,2013-07-01 02:31:00,
2013-06-30 20:46:00,76.9,57.0,29.82,NW,323,3.0,5.0,50,0.00,,,0.00,weatherlink.com 1.10,2013-07-01 02:46:00,
2013-06-30 21:01:00,76.3,57.0,29.83,North,8,2.0,7.0,51,0.00,,,0.00,weatherlink.com 1.10,2013-07-01 03:01:00,
2013-06-30 21:16:00,75.9,57.0,29.84,North,11,4.0,6.0,52,0.00,,,0.00,weatherlink.com 1.10,2013-07-01 03:16:00,
2013-06-30 21:31:00,75.3,57.0,29.84,NW,322,1.0,5.0,54,0.00,,,0.00,weatherlink.com 1.10,2013-07-01 03:31:00,
2013-06-30 21:46:00,74.5,58.0,29.85,NNW,342,0.0,7.0,56,0.00,,,0.00,weatherlink.com 1.10,2013-07-01 03:46:00,
2013-06-30 22:01:00,73.9,58.0,29.85,NNW,335,0.0,3.0,58,0.00,,,0.00,weatherlink.com 1.10,2013-07-01 04:01:00,
2013-06-30 22:16:00,73.5,58.0,29.85,North,354,0.0,4.0,59,0.00,,,0.00,weatherlink.com 1.10,2013-07-01 04:16:00,
2013-06-30 22:31:00,73.2,58.0,29.86,NNW,347,0.0,4.0,59,0.00,,,0.00,weatherlink.com 1.10,2013-07-01 04:31:00,
2013-06-30 22:46:00,72.8,57.0,29.86,NNW,347,0.0,4.0,59,0.00,,,0.00,weatherlink.com 1.10,2013-07-01 04:46:00,
2013-06-30 23:01:00,72.6,57.0,29.86,North,359,0.0,3.0,59,0.00,,,0.00,weatherlink.com 1.10,2013-07-01 05:01:00,
2013-06-30 23:15:00,72.0,58.0,29.86,North,356,0.0,3.0,61,0.00,,,0.00,weatherlink.com 1.10,2013-07-01 05:15:00,
2013-06-30 23:30:00,72.0,57.0,29.86,North,8,1.0,6.0,60,0.00,,,0.00,weatherlink.com 1.10,2013-07-01 05:30:00,
2013-06-30 23:45:00,72.1,57.0,29.86,NW,317,0.0,5.0,60,0.00,,,0.00,weatherlink.com 1.10,2013-07-01 05:45:00,